sensor_id;sensor_type;location;lat;lon;timestamp;P1;durP1;ratioP1;P2;durP2;ratioP2
74320;SDS011;62738;45.772;4.804;2023-02-28T00:01:20;6.35;;;3.30;;
74320;SDS011;62738;45.772;4.804;2023-02-28T00:03:47;6.45;;;3.55;;
74320;SDS011;62738;45.772;4.804;2023-02-28T00:06:14;7.00;;;3.63;;
74320;SDS011;62738;45.772;4.804;2023-02-28T00:08:40;6.13;;;3.63;;
74320;SDS011;62738;45.772;4.804;2023-02-28T00:11:11;6.88;;;3.00;;
74320;SDS011;62738;45.772;4.804;2023-02-28T00:16:11;6.97;;;3.55;;
74320;SDS011;62738;45.772;4.804;2023-02-28T00:18:39;5.25;;;3.28;;
74320;SDS011;62738;45.772;4.804;2023-02-28T00:21:07;5.65;;;3.25;;
74320;SDS011;62738;45.772;4.804;2023-02-28T00:23:34;5.53;;;3.15;;
74320;SDS011;62738;45.772;4.804;2023-02-28T00:26:01;6.20;;;3.72;;
74320;SDS011;62738;45.772;4.804;2023-02-28T00:28:28;7.03;;;3.83;;
74320;SDS011;62738;45.772;4.804;2023-02-28T00:30:55;6.40;;;2.95;;
74320;SDS011;62738;45.772;4.804;2023-02-28T00:33:23;5.38;;;3.20;;
74320;SDS011;62738;45.772;4.804;2023-02-28T00:35:50;7.72;;;4.13;;
74320;SDS011;62738;45.772;4.804;2023-02-28T00:38:17;7.22;;;3.50;;
74320;SDS011;62738;45.772;4.804;2023-02-28T00:40:43;6.38;;;3.75;;
74320;SDS011;62738;45.772;4.804;2023-02-28T00:43:10;8.38;;;3.60;;
74320;SDS011;62738;45.772;4.804;2023-02-28T00:45:37;6.20;;;3.70;;
74320;SDS011;62738;45.772;4.804;2023-02-28T00:48:03;6.20;;;3.10;;
74320;SDS011;62738;45.772;4.804;2023-02-28T00:50:30;7.05;;;3.45;;
74320;SDS011;62738;45.772;4.804;2023-02-28T00:52:57;6.47;;;3.78;;
74320;SDS011;62738;45.772;4.804;2023-02-28T00:55:24;6.22;;;3.65;;
74320;SDS011;62738;45.772;4.804;2023-02-28T00:57:50;6.80;;;3.17;;
74320;SDS011;62738;45.772;4.804;2023-02-28T01:00:17;5.05;;;3.38;;
74320;SDS011;62738;45.772;4.804;2023-02-28T01:02:44;7.53;;;3.67;;
74320;SDS011;62738;45.772;4.804;2023-02-28T01:05:11;8.38;;;3.65;;
74320;SDS011;62738;45.772;4.804;2023-02-28T01:07:37;6.57;;;3.55;;
74320;SDS011;62738;45.772;4.804;2023-02-28T01:10:04;5.22;;;2.78;;
74320;SDS011;62738;45.772;4.804;2023-02-28T01:12:31;9.77;;;3.38;;
74320;SDS011;62738;45.772;4.804;2023-02-28T01:14:58;5.95;;;3.83;;
74320;SDS011;62738;45.772;4.804;2023-02-28T01:17:24;5.18;;;2.97;;
74320;SDS011;62738;45.772;4.804;2023-02-28T01:19:53;6.43;;;3.35;;
74320;SDS011;62738;45.772;4.804;2023-02-28T01:22:21;6.32;;;2.85;;
74320;SDS011;62738;45.772;4.804;2023-02-28T01:24:48;5.63;;;3.08;;
74320;SDS011;62738;45.772;4.804;2023-02-28T01:27:14;5.40;;;2.65;;
74320;SDS011;62738;45.772;4.804;2023-02-28T01:29:41;6.15;;;3.40;;
74320;SDS011;62738;45.772;4.804;2023-02-28T01:32:08;7.03;;;3.63;;
74320;SDS011;62738;45.772;4.804;2023-02-28T01:34:34;8.18;;;3.30;;
74320;SDS011;62738;45.772;4.804;2023-02-28T01:37:01;5.35;;;3.00;;
74320;SDS011;62738;45.772;4.804;2023-02-28T01:39:29;6.25;;;3.22;;
74320;SDS011;62738;45.772;4.804;2023-02-28T01:41:56;6.35;;;3.50;;
74320;SDS011;62738;45.772;4.804;2023-02-28T01:47:35;6.85;;;2.97;;
74320;SDS011;62738;45.772;4.804;2023-02-28T01:50:07;6.75;;;3.15;;
74320;SDS011;62738;45.772;4.804;2023-02-28T01:52:38;7.38;;;3.25;;
74320;SDS011;62738;45.772;4.804;2023-02-28T01:55:05;6.30;;;3.50;;
74320;SDS011;62738;45.772;4.804;2023-02-28T01:58:06;5.82;;;3.53;;
74320;SDS011;62738;45.772;4.804;2023-02-28T02:03:15;5.80;;;3.17;;
74320;SDS011;62738;45.772;4.804;2023-02-28T02:05:45;7.65;;;3.47;;
74320;SDS011;62738;45.772;4.804;2023-02-28T02:08:16;6.53;;;3.50;;
74320;SDS011;62738;45.772;4.804;2023-02-28T02:10:46;10.32;;;3.28;;
74320;SDS011;62738;45.772;4.804;2023-02-28T02:23:53;7.10;;;3.55;;
74320;SDS011;62738;45.772;4.804;2023-02-28T02:43:03;7.40;;;4.07;;
74320;SDS011;62738;45.772;4.804;2023-02-28T02:45:38;7.78;;;3.65;;
74320;SDS011;62738;45.772;4.804;2023-02-28T02:48:10;9.07;;;4.10;;
74320;SDS011;62738;45.772;4.804;2023-02-28T02:50:41;8.80;;;3.00;;
74320;SDS011;62738;45.772;4.804;2023-02-28T02:53:10;6.68;;;3.72;;
74320;SDS011;62738;45.772;4.804;2023-02-28T02:55:40;7.75;;;3.78;;
74320;SDS011;62738;45.772;4.804;2023-02-28T02:58:14;9.40;;;3.70;;
74320;SDS011;62738;45.772;4.804;2023-02-28T03:00:45;7.43;;;4.10;;
74320;SDS011;62738;45.772;4.804;2023-02-28T03:03:14;7.78;;;3.53;;
74320;SDS011;62738;45.772;4.804;2023-02-28T03:05:48;5.95;;;3.40;;
74320;SDS011;62738;45.772;4.804;2023-02-28T03:08:16;6.93;;;3.60;;
74320;SDS011;62738;45.772;4.804;2023-02-28T03:10:44;7.63;;;3.70;;
74320;SDS011;62738;45.772;4.804;2023-02-28T03:27:08;7.53;;;3.72;;
74320;SDS011;62738;45.772;4.804;2023-02-28T03:29:42;8.52;;;3.63;;
74320;SDS011;62738;45.772;4.804;2023-02-28T03:32:18;6.47;;;3.38;;
74320;SDS011;62738;45.772;4.804;2023-02-28T03:34:54;7.85;;;3.83;;
74320;SDS011;62738;45.772;4.804;2023-02-28T03:37:27;8.23;;;3.40;;
74320;SDS011;62738;45.772;4.804;2023-02-28T03:40:00;6.82;;;3.67;;
74320;SDS011;62738;45.772;4.804;2023-02-28T03:42:31;7.70;;;4.32;;
74320;SDS011;62738;45.772;4.804;2023-02-28T03:45:00;5.78;;;3.42;;
74320;SDS011;62738;45.772;4.804;2023-02-28T03:47:36;6.15;;;3.35;;
74320;SDS011;62738;45.772;4.804;2023-02-28T03:50:16;5.53;;;3.38;;
74320;SDS011;62738;45.772;4.804;2023-02-28T03:52:57;7.68;;;3.90;;
74320;SDS011;62738;45.772;4.804;2023-02-28T03:55:32;5.22;;;3.17;;
74320;SDS011;62738;45.772;4.804;2023-02-28T03:58:27;7.43;;;3.63;;
74320;SDS011;62738;45.772;4.804;2023-02-28T04:01:11;5.82;;;3.92;;
74320;SDS011;62738;45.772;4.804;2023-02-28T04:03:41;9.23;;;3.85;;
74320;SDS011;62738;45.772;4.804;2023-02-28T04:06:13;7.15;;;3.45;;
74320;SDS011;62738;45.772;4.804;2023-02-28T04:08:43;8.38;;;3.63;;
74320;SDS011;62738;45.772;4.804;2023-02-28T04:13:50;7.47;;;3.78;;
74320;SDS011;62738;45.772;4.804;2023-02-28T04:16:17;6.10;;;3.42;;
74320;SDS011;62738;45.772;4.804;2023-02-28T04:19:00;8.05;;;3.97;;
74320;SDS011;62738;45.772;4.804;2023-02-28T04:21:32;5.75;;;3.13;;
74320;SDS011;62738;45.772;4.804;2023-02-28T04:24:05;6.45;;;3.78;;
74320;SDS011;62738;45.772;4.804;2023-02-28T04:26:34;10.38;;;3.70;;
74320;SDS011;62738;45.772;4.804;2023-02-28T04:29:03;8.75;;;3.80;;
74320;SDS011;62738;45.772;4.804;2023-02-28T04:31:31;6.78;;;3.47;;
74320;SDS011;62738;45.772;4.804;2023-02-28T04:33:58;6.53;;;3.25;;
74320;SDS011;62738;45.772;4.804;2023-02-28T04:36:26;7.45;;;3.63;;
74320;SDS011;62738;45.772;4.804;2023-02-28T04:38:53;8.63;;;3.85;;
74320;SDS011;62738;45.772;4.804;2023-02-28T04:41:20;7.68;;;3.65;;
74320;SDS011;62738;45.772;4.804;2023-02-28T04:43:50;7.68;;;3.58;;
74320;SDS011;62738;45.772;4.804;2023-02-28T04:46:17;7.93;;;3.30;;
74320;SDS011;62738;45.772;4.804;2023-02-28T04:48:44;7.00;;;4.30;;
74320;SDS011;62738;45.772;4.804;2023-02-28T04:51:12;5.68;;;3.85;;
74320;SDS011;62738;45.772;4.804;2023-02-28T04:53:40;7.35;;;3.88;;
74320;SDS011;62738;45.772;4.804;2023-02-28T04:56:10;6.75;;;3.75;;
74320;SDS011;62738;45.772;4.804;2023-02-28T04:58:38;9.50;;;3.83;;
74320;SDS011;62738;45.772;4.804;2023-02-28T05:01:06;6.18;;;3.33;;
74320;SDS011;62738;45.772;4.804;2023-02-28T05:03:43;6.90;;;3.08;;
74320;SDS011;62738;45.772;4.804;2023-02-28T05:06:10;8.48;;;3.63;;
74320;SDS011;62738;45.772;4.804;2023-02-28T05:08:38;7.43;;;3.25;;
74320;SDS011;62738;45.772;4.804;2023-02-28T05:11:06;8.23;;;3.45;;
74320;SDS011;62738;45.772;4.804;2023-02-28T05:13:42;8.05;;;3.65;;
74320;SDS011;62738;45.772;4.804;2023-02-28T05:16:09;8.20;;;3.65;;
74320;SDS011;62738;45.772;4.804;2023-02-28T05:18:36;5.82;;;3.30;;
74320;SDS011;62738;45.772;4.804;2023-02-28T05:21:03;6.07;;;3.28;;
74320;SDS011;62738;45.772;4.804;2023-02-28T05:23:31;7.05;;;3.60;;
74320;SDS011;62738;45.772;4.804;2023-02-28T05:25:57;4.65;;;2.83;;
74320;SDS011;62738;45.772;4.804;2023-02-28T05:28:24;6.63;;;3.13;;
74320;SDS011;62738;45.772;4.804;2023-02-28T05:30:51;5.82;;;3.45;;
74320;SDS011;62738;45.772;4.804;2023-02-28T05:33:17;6.45;;;3.88;;
74320;SDS011;62738;45.772;4.804;2023-02-28T05:35:44;7.32;;;3.72;;
74320;SDS011;62738;45.772;4.804;2023-02-28T05:38:11;6.65;;;3.83;;
74320;SDS011;62738;45.772;4.804;2023-02-28T05:40:38;6.63;;;3.45;;
74320;SDS011;62738;45.772;4.804;2023-02-28T05:43:07;6.32;;;3.50;;
74320;SDS011;62738;45.772;4.804;2023-02-28T05:45:36;6.15;;;3.70;;
74320;SDS011;62738;45.772;4.804;2023-02-28T05:48:03;6.38;;;3.67;;
74320;SDS011;62738;45.772;4.804;2023-02-28T05:50:29;8.07;;;3.80;;
74320;SDS011;62738;45.772;4.804;2023-02-28T05:52:56;7.70;;;3.80;;
74320;SDS011;62738;45.772;4.804;2023-02-28T05:55:23;7.35;;;4.07;;
74320;SDS011;62738;45.772;4.804;2023-02-28T05:57:50;6.80;;;3.65;;
74320;SDS011;62738;45.772;4.804;2023-02-28T06:00:17;7.10;;;3.50;;
74320;SDS011;62738;45.772;4.804;2023-02-28T06:02:44;7.68;;;4.18;;
74320;SDS011;62738;45.772;4.804;2023-02-28T06:05:14;6.70;;;3.88;;
74320;SDS011;62738;45.772;4.804;2023-02-28T06:07:42;6.53;;;3.78;;
74320;SDS011;62738;45.772;4.804;2023-02-28T06:10:10;7.35;;;3.72;;
74320;SDS011;62738;45.772;4.804;2023-02-28T06:12:38;6.40;;;3.67;;
74320;SDS011;62738;45.772;4.804;2023-02-28T06:15:11;5.60;;;3.47;;
74320;SDS011;62738;45.772;4.804;2023-02-28T06:17:40;4.93;;;2.90;;
74320;SDS011;62738;45.772;4.804;2023-02-28T06:20:08;5.95;;;3.58;;
74320;SDS011;62738;45.772;4.804;2023-02-28T06:22:36;7.32;;;3.63;;
74320;SDS011;62738;45.772;4.804;2023-02-28T06:25:03;6.82;;;3.65;;
74320;SDS011;62738;45.772;4.804;2023-02-28T06:27:31;7.72;;;3.85;;
74320;SDS011;62738;45.772;4.804;2023-02-28T06:29:58;6.72;;;4.05;;
74320;SDS011;62738;45.772;4.804;2023-02-28T06:32:25;7.10;;;3.20;;
74320;SDS011;62738;45.772;4.804;2023-02-28T06:34:52;7.03;;;3.45;;
74320;SDS011;62738;45.772;4.804;2023-02-28T06:37:19;7.32;;;4.07;;
74320;SDS011;62738;45.772;4.804;2023-02-28T06:39:46;7.43;;;3.80;;
74320;SDS011;62738;45.772;4.804;2023-02-28T06:42:12;7.95;;;3.78;;
74320;SDS011;62738;45.772;4.804;2023-02-28T06:44:39;6.45;;;3.80;;
74320;SDS011;62738;45.772;4.804;2023-02-28T06:47:06;6.57;;;3.47;;
74320;SDS011;62738;45.772;4.804;2023-02-28T06:49:33;7.53;;;3.85;;
74320;SDS011;62738;45.772;4.804;2023-02-28T06:52:01;6.40;;;3.10;;
74320;SDS011;62738;45.772;4.804;2023-02-28T06:54:28;6.82;;;3.78;;
74320;SDS011;62738;45.772;4.804;2023-02-28T06:56:55;7.57;;;3.83;;
74320;SDS011;62738;45.772;4.804;2023-02-28T06:59:21;8.65;;;4.32;;
74320;SDS011;62738;45.772;4.804;2023-02-28T07:01:48;7.88;;;3.33;;
74320;SDS011;62738;45.772;4.804;2023-02-28T07:04:15;9.65;;;4.43;;
74320;SDS011;62738;45.772;4.804;2023-02-28T07:06:42;7.57;;;4.38;;
74320;SDS011;62738;45.772;4.804;2023-02-28T07:09:08;9.70;;;4.22;;
74320;SDS011;62738;45.772;4.804;2023-02-28T07:11:36;9.38;;;4.53;;
74320;SDS011;62738;45.772;4.804;2023-02-28T07:14:03;8.13;;;4.00;;
74320;SDS011;62738;45.772;4.804;2023-02-28T07:16:30;6.95;;;3.55;;
74320;SDS011;62738;45.772;4.804;2023-02-28T07:18:57;7.38;;;3.85;;
74320;SDS011;62738;45.772;4.804;2023-02-28T07:21:23;6.95;;;4.28;;
74320;SDS011;62738;45.772;4.804;2023-02-28T07:23:50;5.43;;;3.47;;
74320;SDS011;62738;45.772;4.804;2023-02-28T07:26:18;6.40;;;3.92;;
74320;SDS011;62738;45.772;4.804;2023-02-28T07:28:47;7.75;;;3.75;;
74320;SDS011;62738;45.772;4.804;2023-02-28T07:31:16;7.13;;;3.50;;
74320;SDS011;62738;45.772;4.804;2023-02-28T07:33:43;8.05;;;3.63;;
74320;SDS011;62738;45.772;4.804;2023-02-28T07:36:11;6.82;;;4.15;;
74320;SDS011;62738;45.772;4.804;2023-02-28T07:38:44;6.28;;;3.60;;
74320;SDS011;62738;45.772;4.804;2023-02-28T07:41:15;7.80;;;3.53;;
74320;SDS011;62738;45.772;4.804;2023-02-28T07:43:43;8.55;;;4.00;;
74320;SDS011;62738;45.772;4.804;2023-02-28T07:46:11;5.43;;;3.40;;
74320;SDS011;62738;45.772;4.804;2023-02-28T07:48:43;6.22;;;3.05;;
74320;SDS011;62738;45.772;4.804;2023-02-28T07:51:11;9.13;;;3.78;;
74320;SDS011;62738;45.772;4.804;2023-02-28T07:53:37;7.75;;;3.00;;
74320;SDS011;62738;45.772;4.804;2023-02-28T07:56:04;5.88;;;3.10;;
74320;SDS011;62738;45.772;4.804;2023-02-28T07:58:31;6.57;;;3.72;;
74320;SDS011;62738;45.772;4.804;2023-02-28T08:01:04;5.07;;;2.55;;
74320;SDS011;62738;45.772;4.804;2023-02-28T08:03:32;7.80;;;2.80;;
74320;SDS011;62738;45.772;4.804;2023-02-28T08:05:59;11.02;;;3.78;;
74320;SDS011;62738;45.772;4.804;2023-02-28T08:08:26;6.35;;;3.30;;
74320;SDS011;62738;45.772;4.804;2023-02-28T08:11:00;6.55;;;3.13;;
74320;SDS011;62738;45.772;4.804;2023-02-28T08:13:28;7.57;;;3.85;;
74320;SDS011;62738;45.772;4.804;2023-02-28T08:15:56;9.57;;;3.97;;
74320;SDS011;62738;45.772;4.804;2023-02-28T08:18:23;10.70;;;3.80;;
74320;SDS011;62738;45.772;4.804;2023-02-28T08:20:50;6.65;;;3.70;;
74320;SDS011;62738;45.772;4.804;2023-02-28T08:23:17;6.95;;;3.60;;
74320;SDS011;62738;45.772;4.804;2023-02-28T08:25:43;7.30;;;3.13;;
74320;SDS011;62738;45.772;4.804;2023-02-28T08:28:10;7.65;;;3.70;;
74320;SDS011;62738;45.772;4.804;2023-02-28T08:30:36;7.40;;;3.28;;
74320;SDS011;62738;45.772;4.804;2023-02-28T08:33:03;7.45;;;3.55;;
74320;SDS011;62738;45.772;4.804;2023-02-28T08:35:31;6.13;;;3.22;;
74320;SDS011;62738;45.772;4.804;2023-02-28T08:37:57;7.05;;;3.10;;
74320;SDS011;62738;45.772;4.804;2023-02-28T08:40:24;8.65;;;3.75;;
74320;SDS011;62738;45.772;4.804;2023-02-28T08:42:51;6.80;;;3.30;;
74320;SDS011;62738;45.772;4.804;2023-02-28T08:45:18;9.35;;;3.80;;
74320;SDS011;62738;45.772;4.804;2023-02-28T08:47:44;6.03;;;3.50;;
74320;SDS011;62738;45.772;4.804;2023-02-28T08:50:11;5.28;;;2.95;;
74320;SDS011;62738;45.772;4.804;2023-02-28T08:52:44;6.25;;;3.05;;
74320;SDS011;62738;45.772;4.804;2023-02-28T08:55:10;6.10;;;3.13;;
74320;SDS011;62738;45.772;4.804;2023-02-28T08:57:37;8.40;;;3.17;;
74320;SDS011;62738;45.772;4.804;2023-02-28T09:00:04;7.75;;;3.20;;
74320;SDS011;62738;45.772;4.804;2023-02-28T09:02:31;5.25;;;3.10;;
74320;SDS011;62738;45.772;4.804;2023-02-28T09:04:58;8.23;;;3.15;;
74320;SDS011;62738;45.772;4.804;2023-02-28T09:07:24;6.28;;;3.22;;
74320;SDS011;62738;45.772;4.804;2023-02-28T09:09:51;6.13;;;3.40;;
74320;SDS011;62738;45.772;4.804;2023-02-28T09:12:21;6.45;;;3.05;;
74320;SDS011;62738;45.772;4.804;2023-02-28T09:14:52;7.43;;;3.58;;
74320;SDS011;62738;45.772;4.804;2023-02-28T09:17:19;6.65;;;2.97;;
74320;SDS011;62738;45.772;4.804;2023-02-28T09:19:47;5.57;;;2.97;;
74320;SDS011;62738;45.772;4.804;2023-02-28T09:22:15;7.03;;;3.30;;
74320;SDS011;62738;45.772;4.804;2023-02-28T09:24:42;7.15;;;3.20;;
74320;SDS011;62738;45.772;4.804;2023-02-28T09:27:10;7.35;;;3.22;;
74320;SDS011;62738;45.772;4.804;2023-02-28T09:29:37;5.00;;;3.28;;
74320;SDS011;62738;45.772;4.804;2023-02-28T09:32:04;5.88;;;3.35;;
74320;SDS011;62738;45.772;4.804;2023-02-28T09:34:32;6.13;;;3.45;;
74320;SDS011;62738;45.772;4.804;2023-02-28T09:36:59;6.55;;;3.08;;
74320;SDS011;62738;45.772;4.804;2023-02-28T09:39:26;6.63;;;3.38;;
74320;SDS011;62738;45.772;4.804;2023-02-28T09:41:53;6.20;;;3.50;;
74320;SDS011;62738;45.772;4.804;2023-02-28T09:47:18;5.82;;;3.47;;
74320;SDS011;62738;45.772;4.804;2023-02-28T09:49:47;4.47;;;2.58;;
74320;SDS011;62738;45.772;4.804;2023-02-28T09:52:18;6.07;;;2.80;;
74320;SDS011;62738;45.772;4.804;2023-02-28T09:54:47;5.35;;;3.05;;
74320;SDS011;62738;45.772;4.804;2023-02-28T10:05:48;6.32;;;3.30;;
74320;SDS011;62738;45.772;4.804;2023-02-28T10:08:23;9.20;;;3.13;;
74320;SDS011;62738;45.772;4.804;2023-02-28T10:10:55;5.75;;;3.05;;
74320;SDS011;62738;45.772;4.804;2023-02-28T10:16:35;8.48;;;3.85;;
74320;SDS011;62738;45.772;4.804;2023-02-28T10:24:44;5.30;;;3.45;;
74320;SDS011;62738;45.772;4.804;2023-02-28T10:29:52;6.63;;;3.33;;
74320;SDS011;62738;45.772;4.804;2023-02-28T10:32:21;5.25;;;2.88;;
74320;SDS011;62738;45.772;4.804;2023-02-28T10:34:51;7.63;;;3.53;;
74320;SDS011;62738;45.772;4.804;2023-02-28T10:37:21;7.47;;;3.90;;
74320;SDS011;62738;45.772;4.804;2023-02-28T10:39:48;8.43;;;3.60;;
74320;SDS011;62738;45.772;4.804;2023-02-28T10:42:22;6.68;;;3.72;;
74320;SDS011;62738;45.772;4.804;2023-02-28T10:45:09;3.83;;;2.38;;
74320;SDS011;62738;45.772;4.804;2023-02-28T10:47:41;6.93;;;3.60;;
74320;SDS011;62738;45.772;4.804;2023-02-28T10:50:32;6.40;;;3.45;;
74320;SDS011;62738;45.772;4.804;2023-02-28T11:01:20;5.22;;;3.35;;
74320;SDS011;62738;45.772;4.804;2023-02-28T11:03:48;5.90;;;3.80;;
74320;SDS011;62738;45.772;4.804;2023-02-28T11:06:20;7.20;;;3.60;;
74320;SDS011;62738;45.772;4.804;2023-02-28T11:08:52;7.65;;;3.90;;
74320;SDS011;62738;45.772;4.804;2023-02-28T11:11:22;6.93;;;3.72;;
74320;SDS011;62738;45.772;4.804;2023-02-28T11:13:53;7.00;;;4.20;;
74320;SDS011;62738;45.772;4.804;2023-02-28T11:16:23;7.88;;;4.10;;
74320;SDS011;62738;45.772;4.804;2023-02-28T11:18:59;7.53;;;3.88;;
74320;SDS011;62738;45.772;4.804;2023-02-28T11:21:27;6.25;;;3.90;;
74320;SDS011;62738;45.772;4.804;2023-02-28T11:26:46;8.52;;;4.38;;
74320;SDS011;62738;45.772;4.804;2023-02-28T11:32:00;6.38;;;4.25;;
74320;SDS011;62738;45.772;4.804;2023-02-28T11:34:32;8.32;;;4.53;;
74320;SDS011;62738;45.772;4.804;2023-02-28T11:36:59;7.03;;;3.95;;
74320;SDS011;62738;45.772;4.804;2023-02-28T11:39:31;6.32;;;4.15;;
74320;SDS011;62738;45.772;4.804;2023-02-28T11:47:43;7.22;;;5.03;;
74320;SDS011;62738;45.772;4.804;2023-02-28T11:50:30;6.35;;;4.10;;
74320;SDS011;62738;45.772;4.804;2023-02-28T11:53:00;7.95;;;4.38;;
74320;SDS011;62738;45.772;4.804;2023-02-28T11:55:38;8.20;;;3.97;;
74320;SDS011;62738;45.772;4.804;2023-02-28T11:58:24;9.27;;;5.07;;
74320;SDS011;62738;45.772;4.804;2023-02-28T12:22:11;10.25;;;4.82;;
74320;SDS011;62738;45.772;4.804;2023-02-28T12:27:34;7.20;;;3.58;;
74320;SDS011;62738;45.772;4.804;2023-02-28T12:30:08;7.05;;;4.53;;
74320;SDS011;62738;45.772;4.804;2023-02-28T12:32:46;8.13;;;4.43;;
74320;SDS011;62738;45.772;4.804;2023-02-28T12:46:32;6.35;;;4.05;;
74320;SDS011;62738;45.772;4.804;2023-02-28T12:49:08;7.57;;;4.47;;
74320;SDS011;62738;45.772;4.804;2023-02-28T12:51:38;7.10;;;4.13;;
74320;SDS011;62738;45.772;4.804;2023-02-28T12:56:58;7.35;;;4.05;;
74320;SDS011;62738;45.772;4.804;2023-02-28T13:10:40;8.07;;;4.70;;
74320;SDS011;62738;45.772;4.804;2023-02-28T13:13:17;8.45;;;4.70;;
74320;SDS011;62738;45.772;4.804;2023-02-28T13:15:59;8.70;;;4.97;;
74320;SDS011;62738;45.772;4.804;2023-02-28T13:18:38;6.60;;;4.43;;
74320;SDS011;62738;45.772;4.804;2023-02-28T13:21:09;7.60;;;4.97;;
74320;SDS011;62738;45.772;4.804;2023-02-28T13:28:58;7.38;;;4.68;;
74320;SDS011;62738;45.772;4.804;2023-02-28T13:31:27;6.93;;;4.95;;
74320;SDS011;62738;45.772;4.804;2023-02-28T13:36:27;7.40;;;5.00;;
74320;SDS011;62738;45.772;4.804;2023-02-28T13:39:00;8.57;;;5.25;;
74320;SDS011;62738;45.772;4.804;2023-02-28T13:46:36;8.27;;;4.85;;
74320;SDS011;62738;45.772;4.804;2023-02-28T14:03:06;8.32;;;5.40;;
74320;SDS011;62738;45.772;4.804;2023-02-28T14:11:27;8.30;;;6.10;;
74320;SDS011;62738;45.772;4.804;2023-02-28T14:13:59;9.52;;;5.60;;
74320;SDS011;62738;45.772;4.804;2023-02-28T14:16:27;8.30;;;5.63;;
74320;SDS011;62738;45.772;4.804;2023-02-28T14:22:09;7.72;;;5.32;;
74320;SDS011;62738;45.772;4.804;2023-02-28T14:27:39;8.73;;;5.30;;
74320;SDS011;62738;45.772;4.804;2023-02-28T14:33:04;9.20;;;5.30;;
74320;SDS011;62738;45.772;4.804;2023-02-28T14:35:46;8.35;;;5.20;;
74320;SDS011;62738;45.772;4.804;2023-02-28T14:38:27;9.75;;;5.70;;
74320;SDS011;62738;45.772;4.804;2023-02-28T14:40:57;8.70;;;5.40;;
74320;SDS011;62738;45.772;4.804;2023-02-28T14:43:26;9.55;;;5.20;;
74320;SDS011;62738;45.772;4.804;2023-02-28T14:45:55;7.88;;;5.25;;
74320;SDS011;62738;45.772;4.804;2023-02-28T14:48:25;11.35;;;5.68;;
74320;SDS011;62738;45.772;4.804;2023-02-28T14:50:55;10.27;;;5.22;;
74320;SDS011;62738;45.772;4.804;2023-02-28T14:53:30;9.80;;;6.03;;
74320;SDS011;62738;45.772;4.804;2023-02-28T14:56:02;7.63;;;4.72;;
74320;SDS011;62738;45.772;4.804;2023-02-28T14:58:33;9.10;;;5.72;;
74320;SDS011;62738;45.772;4.804;2023-02-28T15:01:01;8.93;;;5.25;;
74320;SDS011;62738;45.772;4.804;2023-02-28T15:03:36;7.57;;;5.13;;
74320;SDS011;62738;45.772;4.804;2023-02-28T15:06:15;8.63;;;5.32;;
74320;SDS011;62738;45.772;4.804;2023-02-28T15:08:44;10.05;;;5.30;;
74320;SDS011;62738;45.772;4.804;2023-02-28T15:11:15;8.02;;;4.60;;
74320;SDS011;62738;45.772;4.804;2023-02-28T15:13:46;8.77;;;5.25;;
74320;SDS011;62738;45.772;4.804;2023-02-28T15:19:27;7.78;;;5.15;;
74320;SDS011;62738;45.772;4.804;2023-02-28T15:22:04;10.07;;;4.25;;
74320;SDS011;62738;45.772;4.804;2023-02-28T15:24:37;9.25;;;5.20;;
74320;SDS011;62738;45.772;4.804;2023-02-28T15:27:07;8.13;;;5.15;;
74320;SDS011;62738;45.772;4.804;2023-02-28T15:29:44;8.77;;;5.05;;
74320;SDS011;62738;45.772;4.804;2023-02-28T15:34:59;10.60;;;5.70;;
74320;SDS011;62738;45.772;4.804;2023-02-28T15:37:46;9.73;;;5.53;;
74320;SDS011;62738;45.772;4.804;2023-02-28T15:40:36;7.70;;;5.38;;
74320;SDS011;62738;45.772;4.804;2023-02-28T15:45:47;9.13;;;6.07;;
74320;SDS011;62738;45.772;4.804;2023-02-28T15:49:02;8.07;;;5.47;;
74320;SDS011;62738;45.772;4.804;2023-02-28T15:54:01;9.23;;;5.30;;
74320;SDS011;62738;45.772;4.804;2023-02-28T15:59:00;8.75;;;5.05;;
74320;SDS011;62738;45.772;4.804;2023-02-28T16:01:29;10.90;;;5.85;;
74320;SDS011;62738;45.772;4.804;2023-02-28T16:04:05;9.05;;;5.38;;
74320;SDS011;62738;45.772;4.804;2023-02-28T16:06:40;8.82;;;5.80;;
74320;SDS011;62738;45.772;4.804;2023-02-28T16:09:09;10.95;;;5.82;;
74320;SDS011;62738;45.772;4.804;2023-02-28T16:11:49;10.27;;;5.57;;
74320;SDS011;62738;45.772;4.804;2023-02-28T16:14:20;8.77;;;5.28;;
74320;SDS011;62738;45.772;4.804;2023-02-28T16:16:50;10.20;;;5.47;;
74320;SDS011;62738;45.772;4.804;2023-02-28T16:19:19;8.90;;;5.43;;
74320;SDS011;62738;45.772;4.804;2023-02-28T16:21:48;8.63;;;5.50;;
74320;SDS011;62738;45.772;4.804;2023-02-28T16:24:15;9.55;;;5.80;;
74320;SDS011;62738;45.772;4.804;2023-02-28T16:26:41;9.05;;;5.57;;
74320;SDS011;62738;45.772;4.804;2023-02-28T16:29:18;7.72;;;5.10;;
74320;SDS011;62738;45.772;4.804;2023-02-28T16:31:57;9.77;;;5.93;;
74320;SDS011;62738;45.772;4.804;2023-02-28T16:34:25;10.27;;;6.15;;
74320;SDS011;62738;45.772;4.804;2023-02-28T16:36:52;9.20;;;5.82;;
74320;SDS011;62738;45.772;4.804;2023-02-28T16:39:19;11.38;;;6.18;;
74320;SDS011;62738;45.772;4.804;2023-02-28T16:41:47;11.18;;;6.50;;
74320;SDS011;62738;45.772;4.804;2023-02-28T16:44:26;13.25;;;7.25;;
74320;SDS011;62738;45.772;4.804;2023-02-28T16:46:55;10.73;;;5.97;;
74320;SDS011;62738;45.772;4.804;2023-02-28T16:49:22;10.50;;;6.03;;
74320;SDS011;62738;45.772;4.804;2023-02-28T16:51:49;12.50;;;5.53;;
74320;SDS011;62738;45.772;4.804;2023-02-28T16:54:15;9.82;;;6.63;;
74320;SDS011;62738;45.772;4.804;2023-02-28T16:56:43;10.55;;;6.22;;
74320;SDS011;62738;45.772;4.804;2023-02-28T16:59:12;11.45;;;6.07;;
74320;SDS011;62738;45.772;4.804;2023-02-28T17:01:40;10.02;;;5.78;;
74320;SDS011;62738;45.772;4.804;2023-02-28T17:04:08;10.75;;;5.88;;
74320;SDS011;62738;45.772;4.804;2023-02-28T17:06:35;9.50;;;5.40;;
74320;SDS011;62738;45.772;4.804;2023-02-28T17:09:02;10.27;;;6.03;;
74320;SDS011;62738;45.772;4.804;2023-02-28T17:11:28;9.73;;;5.82;;
74320;SDS011;62738;45.772;4.804;2023-02-28T17:13:56;8.60;;;5.55;;
74320;SDS011;62738;45.772;4.804;2023-02-28T17:16:29;10.30;;;5.65;;
74320;SDS011;62738;45.772;4.804;2023-02-28T17:18:59;10.15;;;5.50;;
74320;SDS011;62738;45.772;4.804;2023-02-28T17:21:28;9.30;;;5.63;;
74320;SDS011;62738;45.772;4.804;2023-02-28T17:23:55;10.45;;;5.53;;
74320;SDS011;62738;45.772;4.804;2023-02-28T17:26:22;9.02;;;5.45;;
74320;SDS011;62738;45.772;4.804;2023-02-28T17:28:51;13.40;;;5.78;;
74320;SDS011;62738;45.772;4.804;2023-02-28T17:31:20;9.48;;;5.55;;
74320;SDS011;62738;45.772;4.804;2023-02-28T17:33:47;11.05;;;6.07;;
74320;SDS011;62738;45.772;4.804;2023-02-28T17:36:14;8.05;;;5.75;;
74320;SDS011;62738;45.772;4.804;2023-02-28T17:38:42;8.80;;;5.53;;
74320;SDS011;62738;45.772;4.804;2023-02-28T17:41:10;10.85;;;5.43;;
74320;SDS011;62738;45.772;4.804;2023-02-28T17:43:37;9.50;;;4.47;;
74320;SDS011;62738;45.772;4.804;2023-02-28T17:46:04;11.05;;;5.43;;
74320;SDS011;62738;45.772;4.804;2023-02-28T17:48:32;9.98;;;5.63;;
74320;SDS011;62738;45.772;4.804;2023-02-28T17:51:00;10.30;;;6.03;;
74320;SDS011;62738;45.772;4.804;2023-02-28T17:53:26;10.57;;;5.75;;
74320;SDS011;62738;45.772;4.804;2023-02-28T17:55:53;9.77;;;6.35;;
74320;SDS011;62738;45.772;4.804;2023-02-28T17:58:20;10.40;;;6.18;;
74320;SDS011;62738;45.772;4.804;2023-02-28T18:00:46;8.90;;;5.97;;
74320;SDS011;62738;45.772;4.804;2023-02-28T18:03:13;10.00;;;6.03;;
74320;SDS011;62738;45.772;4.804;2023-02-28T18:05:40;9.02;;;5.80;;
74320;SDS011;62738;45.772;4.804;2023-02-28T18:08:08;11.07;;;5.68;;
74320;SDS011;62738;45.772;4.804;2023-02-28T18:10:36;10.18;;;5.72;;
74320;SDS011;62738;45.772;4.804;2023-02-28T18:13:03;9.88;;;5.97;;
74320;SDS011;62738;45.772;4.804;2023-02-28T18:15:30;12.05;;;5.53;;
74320;SDS011;62738;45.772;4.804;2023-02-28T18:17:56;8.50;;;4.43;;
74320;SDS011;62738;45.772;4.804;2023-02-28T18:20:23;6.20;;;4.18;;